< < Back
Terminal Aerodrome Forecast


Current Version              Previous Versions:   1  2  3  4  5  6  7  8  9  

Terminal Aerodrome Forecast

050
FTUS42 KILM 041720
TAFFLO
TAF
KFLO 041720Z 0418/0518 20006KT P6SM FEW060
     FM050000 VRB05KT P6SM SKC
     FM050600 VRB03KT 3SM BR SKC
     FM051300 VRB06KT P6SM SKC=



Latest METAR

542
SAUS70 KWBC 042300 RRQ
MTRFLO
METAR KFLO 042253Z 17009KT 10SM CLR 26/12 A3026 RMK AO2 SLP246
T02560117


USA.gov is the U.S. government's official web portal to all federal, state and local government web resources and services.